Aeroporto :
LOGIN :

Iscrizione | Disclaimer

   EN    FR    IT 

 










Sommario :    VFR   VFR Marginale   IFR   IFR Intensivo   IFR Molto Intensivo
Visibilità : 
Base nubi : 
>= 8 km
>= 3000ft
5 / 8 km
1000 / 3000 ft
1500m / 5 km
500 / 1000 ft
800 / 1500m
200 / 500 ft
< 800m
< 200 ft
Simboli :   Temporali  Nebbia  Neve Forte  Precipitazioni Forti  Vento > 20 kt
SIGMETs :   Varie  Temporali  Ghiacco  Turbolenza  Onda orograficha  Ceneri Vulcaniche






- Altitudine del aeroporto : 16 ft
- Codice IATA : SDR


LEXJ - Santander Cantabria

ULTIMO METAR :
  • 211830Z VRB01KT CAVOK 10/06 Q1004

METARs OBSOLETI :
  • 211800Z 00000KT 9999 FEW075 10/05 Q1004
  • 211730Z 00000KT 9999 FEW075 11/06 Q1004
  • 211700Z 15005KT 9999 FEW073 12/06 Q1004
  • 211630Z 16005KT 9999 FEW070 13/07 Q1004
  • 211600Z 00000KT 9999 FEW070 15/05 Q1004

TAF TAF LEXJ
Valido dal 21 a 15 ore il 22 a 15 ore UTC


211400Z 2115/2215 21009KT 9999 SCT050 TX15/2115Z TN07/2120Z
PROB30
TEMPO 2115/2117 32010KT
PROB40
TEMPO 2200/2215 22015G25KT
PROB40
TEMPO 2206/2209 RA
TEMPO 2209/2215 18020G35KT



MetMap, La meteo Aeronautica in un colpo d'occhio ! - Copyright ORBIFLY Dicembre 2007 - Disclaimer

ORBIFLY MET'MAP TEAM :

Programmazione e sviluppo : Alexandra Zaïnal
Concezione e sviluppo : Baudouin d'Aumeries
Co-Programmazione e sviluppo : Marc-Olivier Méhu
Supporto tecnico e logistico : Manuel Goepfert
Aiuto per la traduzione : Arnaldo La Scala

Contatto : metmap@orbifly.com




FONTI E CREDITI :

   NOAA